sensor_id;sensor_type;location;lat;lon;timestamp;temperature;humidity
2997;DHT22;1508;48.744;9.110;2022-10-10T00:02:32;11.80;99.90
2997;DHT22;1508;48.744;9.110;2022-10-10T00:05:18;11.80;99.90
2997;DHT22;1508;48.744;9.110;2022-10-10T00:08:04;11.80;99.90
2997;DHT22;1508;48.744;9.110;2022-10-10T00:10:50;11.80;99.90
2997;DHT22;1508;48.744;9.110;2022-10-10T00:13:36;11.90;99.90
2997;DHT22;1508;48.744;9.110;2022-10-10T00:16:22;11.90;99.90
2997;DHT22;1508;48.744;9.110;2022-10-10T00:19:08;11.90;99.90
2997;DHT22;1508;48.744;9.110;2022-10-10T00:21:54;11.90;99.90
2997;DHT22;1508;48.744;9.110;2022-10-10T00:24:39;11.90;99.90
2997;DHT22;1508;48.744;9.110;2022-10-10T00:27:25;11.90;99.90
2997;DHT22;1508;48.744;9.110;2022-10-10T00:30:11;11.90;99.90
2997;DHT22;1508;48.744;9.110;2022-10-10T00:32:58;12.00;99.90
2997;DHT22;1508;48.744;9.110;2022-10-10T00:35:44;11.90;99.90
2997;DHT22;1508;48.744;9.110;2022-10-10T00:38:30;12.00;99.90
2997;DHT22;1508;48.744;9.110;2022-10-10T00:41:16;12.00;99.90
2997;DHT22;1508;48.744;9.110;2022-10-10T00:44:10;12.00;99.90
2997;DHT22;1508;48.744;9.110;2022-10-10T00:46:56;12.00;99.90
2997;DHT22;1508;48.744;9.110;2022-10-10T00:49:43;12.10;99.90
2997;DHT22;1508;48.744;9.110;2022-10-10T00:52:29;12.00;99.90
2997;DHT22;1508;48.744;9.110;2022-10-10T00:55:15;12.10;99.90
2997;DHT22;1508;48.744;9.110;2022-10-10T00:58:03;12.10;99.90
2997;DHT22;1508;48.744;9.110;2022-10-10T01:00:51;12.10;99.90
2997;DHT22;1508;48.744;9.110;2022-10-10T01:03:37;12.00;99.90
2997;DHT22;1508;48.744;9.110;2022-10-10T01:06:23;12.00;99.90
2997;DHT22;1508;48.744;9.110;2022-10-10T01:09:08;12.00;99.90
2997;DHT22;1508;48.744;9.110;2022-10-10T01:12:19;12.00;99.90
2997;DHT22;1508;48.744;9.110;2022-10-10T01:15:17;12.10;99.90
2997;DHT22;1508;48.744;9.110;2022-10-10T01:27:10;12.00;99.90
2997;DHT22;1508;48.744;9.110;2022-10-10T01:30:06;12.10;99.90
2997;DHT22;1508;48.744;9.110;2022-10-10T01:33:07;12.00;99.90
2997;DHT22;1508;48.744;9.110;2022-10-10T01:36:02;12.00;99.90
2997;DHT22;1508;48.744;9.110;2022-10-10T01:39:02;12.00;99.90
2997;DHT22;1508;48.744;9.110;2022-10-10T01:42:08;12.10;99.90
2997;DHT22;1508;48.744;9.110;2022-10-10T01:44:55;12.10;99.90
2997;DHT22;1508;48.744;9.110;2022-10-10T01:47:41;12.20;99.90
2997;DHT22;1508;48.744;9.110;2022-10-10T01:50:27;12.20;99.90
2997;DHT22;1508;48.744;9.110;2022-10-10T01:53:24;12.10;99.90
2997;DHT22;1508;48.744;9.110;2022-10-10T01:56:16;12.20;99.90
2997;DHT22;1508;48.744;9.110;2022-10-10T02:05:49;12.30;99.90
2997;DHT22;1508;48.744;9.110;2022-10-10T02:08:44;12.30;99.90
2997;DHT22;1508;48.744;9.110;2022-10-10T02:11:35;12.30;99.90
2997;DHT22;1508;48.744;9.110;2022-10-10T02:14:30;12.40;99.90
2997;DHT22;1508;48.744;9.110;2022-10-10T02:17:18;12.40;99.90
2997;DHT22;1508;48.744;9.110;2022-10-10T02:20:07;12.30;99.90
2997;DHT22;1508;48.744;9.110;2022-10-10T02:22:53;12.30;99.90
2997;DHT22;1508;48.744;9.110;2022-10-10T02:25:41;12.40;99.90
2997;DHT22;1508;48.744;9.110;2022-10-10T02:28:37;12.30;99.90
2997;DHT22;1508;48.744;9.110;2022-10-10T02:31:31;12.40;99.90
2997;DHT22;1508;48.744;9.110;2022-10-10T02:34:23;12.40;99.90
2997;DHT22;1508;48.744;9.110;2022-10-10T02:37:12;12.40;99.90
2997;DHT22;1508;48.744;9.110;2022-10-10T02:40:00;12.40;99.90
2997;DHT22;1508;48.744;9.110;2022-10-10T02:42:48;12.30;99.90
2997;DHT22;1508;48.744;9.110;2022-10-10T02:45:35;12.20;99.90
2997;DHT22;1508;48.744;9.110;2022-10-10T02:48:21;12.30;99.90
2997;DHT22;1508;48.744;9.110;2022-10-10T02:51:08;12.20;99.90
2997;DHT22;1508;48.744;9.110;2022-10-10T02:53:54;12.20;99.90
2997;DHT22;1508;48.744;9.110;2022-10-10T02:56:40;12.20;99.90
2997;DHT22;1508;48.744;9.110;2022-10-10T02:59:26;12.20;99.90
2997;DHT22;1508;48.744;9.110;2022-10-10T03:02:12;12.20;99.90
2997;DHT22;1508;48.744;9.110;2022-10-10T03:04:57;12.20;99.90
2997;DHT22;1508;48.744;9.110;2022-10-10T03:07:43;12.20;99.90
2997;DHT22;1508;48.744;9.110;2022-10-10T03:10:29;12.20;99.90
2997;DHT22;1508;48.744;9.110;2022-10-10T03:13:15;12.20;99.90
2997;DHT22;1508;48.744;9.110;2022-10-10T03:16:01;12.10;99.90
2997;DHT22;1508;48.744;9.110;2022-10-10T03:18:46;12.10;99.90
2997;DHT22;1508;48.744;9.110;2022-10-10T03:21:34;12.10;99.90
2997;DHT22;1508;48.744;9.110;2022-10-10T03:24:20;12.10;99.90
2997;DHT22;1508;48.744;9.110;2022-10-10T03:27:06;12.10;99.90
2997;DHT22;1508;48.744;9.110;2022-10-10T03:29:51;12.10;99.90
2997;DHT22;1508;48.744;9.110;2022-10-10T03:32:37;12.00;99.90
2997;DHT22;1508;48.744;9.110;2022-10-10T03:35:23;12.00;99.90
2997;DHT22;1508;48.744;9.110;2022-10-10T03:38:10;12.00;99.90
2997;DHT22;1508;48.744;9.110;2022-10-10T03:40:57;12.10;99.90
2997;DHT22;1508;48.744;9.110;2022-10-10T03:43:42;12.10;99.90
2997;DHT22;1508;48.744;9.110;2022-10-10T03:46:28;12.10;99.90
2997;DHT22;1508;48.744;9.110;2022-10-10T03:49:14;12.10;99.90
2997;DHT22;1508;48.744;9.110;2022-10-10T03:52:00;12.20;99.90
2997;DHT22;1508;48.744;9.110;2022-10-10T03:54:46;12.10;99.90
2997;DHT22;1508;48.744;9.110;2022-10-10T03:57:31;12.10;99.90
2997;DHT22;1508;48.744;9.110;2022-10-10T04:00:17;12.10;99.90
2997;DHT22;1508;48.744;9.110;2022-10-10T04:03:03;12.10;99.90
2997;DHT22;1508;48.744;9.110;2022-10-10T04:05:49;12.10;99.90
2997;DHT22;1508;48.744;9.110;2022-10-10T04:08:35;12.10;99.90
2997;DHT22;1508;48.744;9.110;2022-10-10T04:11:21;12.10;99.90
2997;DHT22;1508;48.744;9.110;2022-10-10T04:14:07;12.20;99.90
2997;DHT22;1508;48.744;9.110;2022-10-10T04:16:53;12.30;99.90
2997;DHT22;1508;48.744;9.110;2022-10-10T04:19:39;12.30;99.90
2997;DHT22;1508;48.744;9.110;2022-10-10T04:22:25;12.30;99.90
2997;DHT22;1508;48.744;9.110;2022-10-10T04:25:11;12.30;99.90
2997;DHT22;1508;48.744;9.110;2022-10-10T04:27:57;12.30;99.90
2997;DHT22;1508;48.744;9.110;2022-10-10T04:30:42;12.30;99.90
2997;DHT22;1508;48.744;9.110;2022-10-10T04:33:28;12.30;99.90
2997;DHT22;1508;48.744;9.110;2022-10-10T04:36:14;12.30;99.90
2997;DHT22;1508;48.744;9.110;2022-10-10T04:39:00;12.30;99.90
2997;DHT22;1508;48.744;9.110;2022-10-10T04:41:46;12.30;99.90
2997;DHT22;1508;48.744;9.110;2022-10-10T04:44:32;12.30;99.90
2997;DHT22;1508;48.744;9.110;2022-10-10T04:47:18;12.20;99.90
2997;DHT22;1508;48.744;9.110;2022-10-10T04:50:04;12.20;99.90
2997;DHT22;1508;48.744;9.110;2022-10-10T04:52:50;12.20;99.90
2997;DHT22;1508;48.744;9.110;2022-10-10T04:55:36;12.20;99.90
2997;DHT22;1508;48.744;9.110;2022-10-10T04:58:21;12.10;99.90
2997;DHT22;1508;48.744;9.110;2022-10-10T05:01:07;12.20;99.90
2997;DHT22;1508;48.744;9.110;2022-10-10T05:03:53;12.20;99.90
2997;DHT22;1508;48.744;9.110;2022-10-10T05:06:39;12.40;99.90
2997;DHT22;1508;48.744;9.110;2022-10-10T05:09:25;12.80;99.90
2997;DHT22;1508;48.744;9.110;2022-10-10T05:12:11;12.90;99.90
2997;DHT22;1508;48.744;9.110;2022-10-10T05:14:57;13.00;99.90
2997;DHT22;1508;48.744;9.110;2022-10-10T05:17:43;13.10;99.90
2997;DHT22;1508;48.744;9.110;2022-10-10T05:20:30;13.20;99.90
2997;DHT22;1508;48.744;9.110;2022-10-10T05:23:16;13.20;99.90
2997;DHT22;1508;48.744;9.110;2022-10-10T05:26:02;13.20;99.90
2997;DHT22;1508;48.744;9.110;2022-10-10T05:28:47;13.20;99.90
2997;DHT22;1508;48.744;9.110;2022-10-10T05:31:33;13.10;99.90
2997;DHT22;1508;48.744;9.110;2022-10-10T05:34:19;13.10;99.90
2997;DHT22;1508;48.744;9.110;2022-10-10T05:37:05;13.00;99.90
2997;DHT22;1508;48.744;9.110;2022-10-10T05:39:51;13.00;99.90
2997;DHT22;1508;48.744;9.110;2022-10-10T05:42:36;12.90;99.90
2997;DHT22;1508;48.744;9.110;2022-10-10T05:45:22;12.80;99.90
2997;DHT22;1508;48.744;9.110;2022-10-10T05:48:08;12.80;99.90
2997;DHT22;1508;48.744;9.110;2022-10-10T05:50:55;12.70;99.90
2997;DHT22;1508;48.744;9.110;2022-10-10T05:53:41;12.70;99.90
2997;DHT22;1508;48.744;9.110;2022-10-10T05:56:27;12.80;99.90
2997;DHT22;1508;48.744;9.110;2022-10-10T05:59:13;12.80;99.90
2997;DHT22;1508;48.744;9.110;2022-10-10T06:01:59;12.80;99.90
2997;DHT22;1508;48.744;9.110;2022-10-10T06:04:44;12.90;99.90
2997;DHT22;1508;48.744;9.110;2022-10-10T06:07:30;12.90;99.90
2997;DHT22;1508;48.744;9.110;2022-10-10T06:10:16;12.90;99.90
2997;DHT22;1508;48.744;9.110;2022-10-10T06:13:02;13.00;99.90
2997;DHT22;1508;48.744;9.110;2022-10-10T06:15:50;13.10;99.90
2997;DHT22;1508;48.744;9.110;2022-10-10T06:18:36;13.20;99.90
2997;DHT22;1508;48.744;9.110;2022-10-10T06:21:23;13.20;99.90
2997;DHT22;1508;48.744;9.110;2022-10-10T06:24:09;13.30;99.90
2997;DHT22;1508;48.744;9.110;2022-10-10T06:26:54;13.40;99.90
2997;DHT22;1508;48.744;9.110;2022-10-10T06:29:40;13.40;99.90
2997;DHT22;1508;48.744;9.110;2022-10-10T06:32:26;13.40;99.90
2997;DHT22;1508;48.744;9.110;2022-10-10T06:35:12;13.50;99.90
2997;DHT22;1508;48.744;9.110;2022-10-10T06:37:58;13.60;99.90
2997;DHT22;1508;48.744;9.110;2022-10-10T06:40:44;13.60;99.90
2997;DHT22;1508;48.744;9.110;2022-10-10T06:43:31;13.60;99.90
2997;DHT22;1508;48.744;9.110;2022-10-10T06:46:17;13.70;99.90
2997;DHT22;1508;48.744;9.110;2022-10-10T06:49:03;13.60;99.90
2997;DHT22;1508;48.744;9.110;2022-10-10T06:51:49;13.50;99.90
2997;DHT22;1508;48.744;9.110;2022-10-10T06:54:35;13.60;99.90
2997;DHT22;1508;48.744;9.110;2022-10-10T06:57:21;13.60;99.90
2997;DHT22;1508;48.744;9.110;2022-10-10T07:00:07;13.70;99.90
2997;DHT22;1508;48.744;9.110;2022-10-10T07:02:53;13.70;99.90
2997;DHT22;1508;48.744;9.110;2022-10-10T07:05:39;13.90;99.90
2997;DHT22;1508;48.744;9.110;2022-10-10T07:08:25;13.90;99.90
2997;DHT22;1508;48.744;9.110;2022-10-10T07:11:11;14.00;99.90
2997;DHT22;1508;48.744;9.110;2022-10-10T07:13:57;14.00;99.90
2997;DHT22;1508;48.744;9.110;2022-10-10T07:16:43;14.20;99.90
2997;DHT22;1508;48.744;9.110;2022-10-10T07:19:29;14.30;99.90
2997;DHT22;1508;48.744;9.110;2022-10-10T07:22:15;14.40;99.90
2997;DHT22;1508;48.744;9.110;2022-10-10T07:25:01;14.50;99.90
2997;DHT22;1508;48.744;9.110;2022-10-10T07:27:46;14.70;99.90
2997;DHT22;1508;48.744;9.110;2022-10-10T07:30:37;14.80;99.90
2997;DHT22;1508;48.744;9.110;2022-10-10T07:33:23;15.00;99.90
2997;DHT22;1508;48.744;9.110;2022-10-10T07:36:09;15.10;99.90
2997;DHT22;1508;48.744;9.110;2022-10-10T07:38:55;15.20;99.90
2997;DHT22;1508;48.744;9.110;2022-10-10T07:41:41;15.20;99.90
2997;DHT22;1508;48.744;9.110;2022-10-10T07:44:27;15.20;99.90
2997;DHT22;1508;48.744;9.110;2022-10-10T07:47:13;15.20;99.90
2997;DHT22;1508;48.744;9.110;2022-10-10T07:49:58;15.30;99.90
2997;DHT22;1508;48.744;9.110;2022-10-10T07:52:44;15.30;99.90
2997;DHT22;1508;48.744;9.110;2022-10-10T07:55:30;15.30;99.90
2997;DHT22;1508;48.744;9.110;2022-10-10T07:58:16;15.50;99.90
2997;DHT22;1508;48.744;9.110;2022-10-10T08:01:09;15.70;99.90
2997;DHT22;1508;48.744;9.110;2022-10-10T08:03:55;15.90;99.90
2997;DHT22;1508;48.744;9.110;2022-10-10T08:06:41;16.10;99.90
2997;DHT22;1508;48.744;9.110;2022-10-10T08:09:27;16.10;99.90
2997;DHT22;1508;48.744;9.110;2022-10-10T08:12:13;16.10;99.90
2997;DHT22;1508;48.744;9.110;2022-10-10T08:14:58;16.30;99.90
2997;DHT22;1508;48.744;9.110;2022-10-10T08:17:44;16.40;99.90
2997;DHT22;1508;48.744;9.110;2022-10-10T08:20:30;16.40;99.90
2997;DHT22;1508;48.744;9.110;2022-10-10T08:23:16;16.40;99.90
2997;DHT22;1508;48.744;9.110;2022-10-10T08:26:05;16.50;99.90
2997;DHT22;1508;48.744;9.110;2022-10-10T08:28:51;16.60;99.90
2997;DHT22;1508;48.744;9.110;2022-10-10T08:31:37;16.50;99.90
2997;DHT22;1508;48.744;9.110;2022-10-10T08:34:22;16.60;99.90
2997;DHT22;1508;48.744;9.110;2022-10-10T08:37:08;16.60;99.90
2997;DHT22;1508;48.744;9.110;2022-10-10T08:39:54;16.70;99.90
2997;DHT22;1508;48.744;9.110;2022-10-10T08:42:44;16.90;99.90
2997;DHT22;1508;48.744;9.110;2022-10-10T08:45:32;17.00;99.90
2997;DHT22;1508;48.744;9.110;2022-10-10T08:48:23;17.10;99.90
2997;DHT22;1508;48.744;9.110;2022-10-10T08:51:16;17.00;99.90
2997;DHT22;1508;48.744;9.110;2022-10-10T08:54:03;17.20;99.90
2997;DHT22;1508;48.744;9.110;2022-10-10T08:56:53;17.40;99.90
2997;DHT22;1508;48.744;9.110;2022-10-10T08:59:40;17.40;99.90
2997;DHT22;1508;48.744;9.110;2022-10-10T09:11:54;17.90;99.90
2997;DHT22;1508;48.744;9.110;2022-10-10T09:20:52;18.10;99.90
2997;DHT22;1508;48.744;9.110;2022-10-10T09:24:11;18.00;99.90
2997;DHT22;1508;48.744;9.110;2022-10-10T09:27:05;18.00;99.90
2997;DHT22;1508;48.744;9.110;2022-10-10T09:30:05;18.10;99.90
2997;DHT22;1508;48.744;9.110;2022-10-10T09:32:57;18.20;99.90
2997;DHT22;1508;48.744;9.110;2022-10-10T09:35:47;18.40;99.90
2997;DHT22;1508;48.744;9.110;2022-10-10T09:41:35;19.20;99.90
2997;DHT22;1508;48.744;9.110;2022-10-10T09:44:24;19.20;99.90
2997;DHT22;1508;48.744;9.110;2022-10-10T09:47:14;19.30;99.90
2997;DHT22;1508;48.744;9.110;2022-10-10T09:50:01;19.30;99.90
2997;DHT22;1508;48.744;9.110;2022-10-10T09:52:48;19.40;99.90
2997;DHT22;1508;48.744;9.110;2022-10-10T09:55:37;19.20;99.90
2997;DHT22;1508;48.744;9.110;2022-10-10T09:58:53;19.30;99.90
2997;DHT22;1508;48.744;9.110;2022-10-10T10:01:39;19.40;99.90
2997;DHT22;1508;48.744;9.110;2022-10-10T10:04:30;19.30;99.90
2997;DHT22;1508;48.744;9.110;2022-10-10T10:10:18;19.20;99.90
2997;DHT22;1508;48.744;9.110;2022-10-10T10:13:12;19.20;99.90
2997;DHT22;1508;48.744;9.110;2022-10-10T10:16:16;19.20;99.90
2997;DHT22;1508;48.744;9.110;2022-10-10T10:19:02;19.30;99.90
2997;DHT22;1508;48.744;9.110;2022-10-10T10:21:49;19.60;99.90
2997;DHT22;1508;48.744;9.110;2022-10-10T10:24:36;19.80;99.90
2997;DHT22;1508;48.744;9.110;2022-10-10T10:27:24;19.70;99.90
2997;DHT22;1508;48.744;9.110;2022-10-10T10:30:23;19.70;99.90
2997;DHT22;1508;48.744;9.110;2022-10-10T10:36:38;20.00;99.90
2997;DHT22;1508;48.744;9.110;2022-10-10T10:45:52;20.40;99.90
2997;DHT22;1508;48.744;9.110;2022-10-10T10:58:21;20.60;99.90
2997;DHT22;1508;48.744;9.110;2022-10-10T11:01:56;20.40;99.90
2997;DHT22;1508;48.744;9.110;2022-10-10T11:11:07;20.90;99.90
2997;DHT22;1508;48.744;9.110;2022-10-10T11:14:48;20.90;99.90
2997;DHT22;1508;48.744;9.110;2022-10-10T11:23:26;21.20;99.90
2997;DHT22;1508;48.744;9.110;2022-10-10T11:26:21;21.30;99.90
2997;DHT22;1508;48.744;9.110;2022-10-10T11:29:29;21.30;99.90
2997;DHT22;1508;48.744;9.110;2022-10-10T11:32:21;21.40;99.90
2997;DHT22;1508;48.744;9.110;2022-10-10T11:35:34;21.40;99.90
2997;DHT22;1508;48.744;9.110;2022-10-10T11:41:42;21.40;99.90
2997;DHT22;1508;48.744;9.110;2022-10-10T11:44:33;21.50;99.90
2997;DHT22;1508;48.744;9.110;2022-10-10T11:47:27;21.70;99.90
2997;DHT22;1508;48.744;9.110;2022-10-10T11:50:30;21.70;99.90
2997;DHT22;1508;48.744;9.110;2022-10-10T11:53:38;21.60;99.90
2997;DHT22;1508;48.744;9.110;2022-10-10T11:56:36;21.80;99.90
2997;DHT22;1508;48.744;9.110;2022-10-10T11:59:31;21.60;99.90
2997;DHT22;1508;48.744;9.110;2022-10-10T12:02:33;21.70;99.90
2997;DHT22;1508;48.744;9.110;2022-10-10T12:05:25;21.70;99.90
2997;DHT22;1508;48.744;9.110;2022-10-10T12:11:21;21.70;99.90
2997;DHT22;1508;48.744;9.110;2022-10-10T12:14:14;21.80;99.90
2997;DHT22;1508;48.744;9.110;2022-10-10T12:17:01;21.80;99.90
2997;DHT22;1508;48.744;9.110;2022-10-10T12:19:49;21.90;99.90
2997;DHT22;1508;48.744;9.110;2022-10-10T12:22:36;22.10;99.90
2997;DHT22;1508;48.744;9.110;2022-10-10T12:25:37;22.10;99.90
2997;DHT22;1508;48.744;9.110;2022-10-10T12:45:56;22.50;99.90
2997;DHT22;1508;48.744;9.110;2022-10-10T12:48:43;22.50;99.90
2997;DHT22;1508;48.744;9.110;2022-10-10T12:51:32;22.60;99.90
2997;DHT22;1508;48.744;9.110;2022-10-10T12:54:26;22.70;99.90
2997;DHT22;1508;48.744;9.110;2022-10-10T13:00:22;23.30;99.90
2997;DHT22;1508;48.744;9.110;2022-10-10T13:03:32;23.50;99.90
2997;DHT22;1508;48.744;9.110;2022-10-10T13:06:26;23.70;99.90
2997;DHT22;1508;48.744;9.110;2022-10-10T13:12:01;24.00;99.90
2997;DHT22;1508;48.744;9.110;2022-10-10T13:14:47;23.70;99.90
2997;DHT22;1508;48.744;9.110;2022-10-10T13:17:39;23.30;99.90
2997;DHT22;1508;48.744;9.110;2022-10-10T13:20:30;22.60;99.90
2997;DHT22;1508;48.744;9.110;2022-10-10T13:23:17;22.20;99.90
2997;DHT22;1508;48.744;9.110;2022-10-10T13:26:04;22.00;99.90
2997;DHT22;1508;48.744;9.110;2022-10-10T13:28:50;22.00;99.90
2997;DHT22;1508;48.744;9.110;2022-10-10T13:31:37;22.00;99.90
2997;DHT22;1508;48.744;9.110;2022-10-10T13:34:26;22.10;99.90
2997;DHT22;1508;48.744;9.110;2022-10-10T13:37:14;22.10;99.90
2997;DHT22;1508;48.744;9.110;2022-10-10T13:40:01;22.40;99.90
2997;DHT22;1508;48.744;9.110;2022-10-10T13:42:47;22.10;99.90
2997;DHT22;1508;48.744;9.110;2022-10-10T13:45:37;22.20;99.90
2997;DHT22;1508;48.744;9.110;2022-10-10T13:51:43;22.10;99.90
2997;DHT22;1508;48.744;9.110;2022-10-10T13:54:41;21.40;99.90
2997;DHT22;1508;48.744;9.110;2022-10-10T13:57:27;21.20;99.90
2997;DHT22;1508;48.744;9.110;2022-10-10T14:00:19;21.00;99.90
2997;DHT22;1508;48.744;9.110;2022-10-10T14:03:13;21.00;99.90
2997;DHT22;1508;48.744;9.110;2022-10-10T14:06:01;21.00;99.90
2997;DHT22;1508;48.744;9.110;2022-10-10T14:08:47;20.90;99.90
2997;DHT22;1508;48.744;9.110;2022-10-10T14:11:33;20.80;99.90
2997;DHT22;1508;48.744;9.110;2022-10-10T14:14:23;20.80;99.90
2997;DHT22;1508;48.744;9.110;2022-10-10T14:17:10;20.80;99.90
2997;DHT22;1508;48.744;9.110;2022-10-10T14:19:56;20.70;99.90
2997;DHT22;1508;48.744;9.110;2022-10-10T14:22:42;20.70;99.90
2997;DHT22;1508;48.744;9.110;2022-10-10T14:25:28;20.70;99.90
2997;DHT22;1508;48.744;9.110;2022-10-10T14:28:16;20.80;99.90
2997;DHT22;1508;48.744;9.110;2022-10-10T14:31:03;20.80;99.90
2997;DHT22;1508;48.744;9.110;2022-10-10T14:33:50;20.80;99.90
2997;DHT22;1508;48.744;9.110;2022-10-10T14:36:45;20.90;99.90
2997;DHT22;1508;48.744;9.110;2022-10-10T14:39:31;20.70;99.90
2997;DHT22;1508;48.744;9.110;2022-10-10T14:42:18;20.70;99.90
2997;DHT22;1508;48.744;9.110;2022-10-10T14:45:05;20.50;99.90
2997;DHT22;1508;48.744;9.110;2022-10-10T14:47:51;20.50;99.90
2997;DHT22;1508;48.744;9.110;2022-10-10T14:50:40;20.50;99.90
2997;DHT22;1508;48.744;9.110;2022-10-10T14:53:26;20.60;99.90
2997;DHT22;1508;48.744;9.110;2022-10-10T14:56:12;20.50;99.90
2997;DHT22;1508;48.744;9.110;2022-10-10T14:58:58;20.40;99.90
2997;DHT22;1508;48.744;9.110;2022-10-10T15:01:45;20.50;99.90
2997;DHT22;1508;48.744;9.110;2022-10-10T15:04:31;20.40;99.90
2997;DHT22;1508;48.744;9.110;2022-10-10T15:07:18;20.30;99.90
2997;DHT22;1508;48.744;9.110;2022-10-10T15:10:05;20.20;99.90
2997;DHT22;1508;48.744;9.110;2022-10-10T15:12:51;20.10;99.90
2997;DHT22;1508;48.744;9.110;2022-10-10T15:15:37;20.20;99.90
2997;DHT22;1508;48.744;9.110;2022-10-10T15:18:23;20.30;99.90
2997;DHT22;1508;48.744;9.110;2022-10-10T15:21:10;20.30;99.90
2997;DHT22;1508;48.744;9.110;2022-10-10T15:23:56;20.30;99.90
2997;DHT22;1508;48.744;9.110;2022-10-10T15:26:42;20.30;99.90
2997;DHT22;1508;48.744;9.110;2022-10-10T15:29:28;20.40;99.90
2997;DHT22;1508;48.744;9.110;2022-10-10T15:32:14;20.30;99.90
2997;DHT22;1508;48.744;9.110;2022-10-10T15:35:00;20.40;99.90
2997;DHT22;1508;48.744;9.110;2022-10-10T15:37:46;20.30;99.90
2997;DHT22;1508;48.744;9.110;2022-10-10T15:40:32;20.20;99.90
2997;DHT22;1508;48.744;9.110;2022-10-10T15:43:18;20.20;99.90
2997;DHT22;1508;48.744;9.110;2022-10-10T15:46:07;20.20;99.90
2997;DHT22;1508;48.744;9.110;2022-10-10T15:48:55;20.20;99.90
2997;DHT22;1508;48.744;9.110;2022-10-10T15:51:45;20.20;99.90
2997;DHT22;1508;48.744;9.110;2022-10-10T15:54:31;20.20;99.90
2997;DHT22;1508;48.744;9.110;2022-10-10T15:57:18;20.20;99.90
2997;DHT22;1508;48.744;9.110;2022-10-10T16:00:04;20.20;99.90
2997;DHT22;1508;48.744;9.110;2022-10-10T16:02:50;20.10;99.90
2997;DHT22;1508;48.744;9.110;2022-10-10T16:05:40;20.10;99.90
2997;DHT22;1508;48.744;9.110;2022-10-10T16:08:26;20.00;99.90
2997;DHT22;1508;48.744;9.110;2022-10-10T16:11:15;19.90;99.90
2997;DHT22;1508;48.744;9.110;2022-10-10T16:14:02;19.90;99.90
2997;DHT22;1508;48.744;9.110;2022-10-10T16:16:48;19.70;99.90
2997;DHT22;1508;48.744;9.110;2022-10-10T16:19:33;19.60;99.90
2997;DHT22;1508;48.744;9.110;2022-10-10T16:22:19;19.40;99.90
2997;DHT22;1508;48.744;9.110;2022-10-10T16:25:05;19.20;99.90
2997;DHT22;1508;48.744;9.110;2022-10-10T16:27:51;19.20;99.90
2997;DHT22;1508;48.744;9.110;2022-10-10T16:30:37;19.10;99.90
2997;DHT22;1508;48.744;9.110;2022-10-10T16:33:23;18.90;99.90
2997;DHT22;1508;48.744;9.110;2022-10-10T16:36:18;18.80;99.90
2997;DHT22;1508;48.744;9.110;2022-10-10T16:39:04;18.70;99.90
2997;DHT22;1508;48.744;9.110;2022-10-10T16:41:50;18.50;99.90
2997;DHT22;1508;48.744;9.110;2022-10-10T16:44:36;18.50;99.90
2997;DHT22;1508;48.744;9.110;2022-10-10T16:47:21;18.40;99.90
2997;DHT22;1508;48.744;9.110;2022-10-10T16:50:08;18.30;99.90
2997;DHT22;1508;48.744;9.110;2022-10-10T16:52:54;18.20;99.90
2997;DHT22;1508;48.744;9.110;2022-10-10T16:55:40;18.20;99.90
2997;DHT22;1508;48.744;9.110;2022-10-10T16:58:27;18.10;99.90
2997;DHT22;1508;48.744;9.110;2022-10-10T17:01:16;18.00;99.90
2997;DHT22;1508;48.744;9.110;2022-10-10T17:04:03;17.90;99.90
2997;DHT22;1508;48.744;9.110;2022-10-10T17:06:48;17.90;99.90
2997;DHT22;1508;48.744;9.110;2022-10-10T17:09:34;17.80;99.90
2997;DHT22;1508;48.744;9.110;2022-10-10T17:12:20;17.70;99.90
2997;DHT22;1508;48.744;9.110;2022-10-10T17:15:06;17.70;99.90
2997;DHT22;1508;48.744;9.110;2022-10-10T17:17:52;17.50;99.90
2997;DHT22;1508;48.744;9.110;2022-10-10T17:20:42;17.40;99.90
2997;DHT22;1508;48.744;9.110;2022-10-10T17:23:28;17.30;99.90
2997;DHT22;1508;48.744;9.110;2022-10-10T17:26:16;17.20;99.90
2997;DHT22;1508;48.744;9.110;2022-10-10T17:29:02;17.00;99.90
2997;DHT22;1508;48.744;9.110;2022-10-10T17:31:48;16.90;99.90
2997;DHT22;1508;48.744;9.110;2022-10-10T17:34:34;16.90;99.90
2997;DHT22;1508;48.744;9.110;2022-10-10T17:37:20;16.90;99.90
2997;DHT22;1508;48.744;9.110;2022-10-10T17:40:06;16.90;99.90
2997;DHT22;1508;48.744;9.110;2022-10-10T17:42:52;16.90;99.90
2997;DHT22;1508;48.744;9.110;2022-10-10T17:45:38;16.90;99.90
2997;DHT22;1508;48.744;9.110;2022-10-10T17:48:24;16.90;99.90
2997;DHT22;1508;48.744;9.110;2022-10-10T17:51:11;16.80;99.90
2997;DHT22;1508;48.744;9.110;2022-10-10T17:53:58;16.80;99.90
2997;DHT22;1508;48.744;9.110;2022-10-10T17:56:44;16.80;99.90
2997;DHT22;1508;48.744;9.110;2022-10-10T17:59:30;16.80;99.90
2997;DHT22;1508;48.744;9.110;2022-10-10T18:02:16;16.80;99.90
2997;DHT22;1508;48.744;9.110;2022-10-10T18:05:03;16.90;99.90
2997;DHT22;1508;48.744;9.110;2022-10-10T18:07:49;16.80;99.90
2997;DHT22;1508;48.744;9.110;2022-10-10T18:10:40;16.80;99.90
2997;DHT22;1508;48.744;9.110;2022-10-10T18:13:26;16.90;99.90
2997;DHT22;1508;48.744;9.110;2022-10-10T18:16:14;16.60;99.90
2997;DHT22;1508;48.744;9.110;2022-10-10T18:19:02;16.30;99.90
2997;DHT22;1508;48.744;9.110;2022-10-10T18:21:48;16.10;99.90
2997;DHT22;1508;48.744;9.110;2022-10-10T18:24:34;15.70;99.90
2997;DHT22;1508;48.744;9.110;2022-10-10T18:27:20;15.60;99.90
2997;DHT22;1508;48.744;9.110;2022-10-10T18:30:06;15.70;99.90
2997;DHT22;1508;48.744;9.110;2022-10-10T18:32:52;15.70;99.90
2997;DHT22;1508;48.744;9.110;2022-10-10T18:35:40;15.70;99.90
2997;DHT22;1508;48.744;9.110;2022-10-10T18:38:26;15.70;99.90
2997;DHT22;1508;48.744;9.110;2022-10-10T18:41:17;15.70;99.90
2997;DHT22;1508;48.744;9.110;2022-10-10T18:44:06;15.80;99.90
2997;DHT22;1508;48.744;9.110;2022-10-10T18:46:52;15.70;99.90
2997;DHT22;1508;48.744;9.110;2022-10-10T18:49:38;15.70;99.90
2997;DHT22;1508;48.744;9.110;2022-10-10T18:52:24;15.60;99.90
2997;DHT22;1508;48.744;9.110;2022-10-10T18:55:10;15.60;99.90
2997;DHT22;1508;48.744;9.110;2022-10-10T18:57:56;15.50;99.90
2997;DHT22;1508;48.744;9.110;2022-10-10T19:00:42;15.40;99.90
2997;DHT22;1508;48.744;9.110;2022-10-10T19:03:28;15.30;99.90
2997;DHT22;1508;48.744;9.110;2022-10-10T19:06:14;15.30;99.90
2997;DHT22;1508;48.744;9.110;2022-10-10T19:09:03;15.30;99.90
2997;DHT22;1508;48.744;9.110;2022-10-10T19:11:49;15.20;99.90
2997;DHT22;1508;48.744;9.110;2022-10-10T19:14:35;15.20;99.90
2997;DHT22;1508;48.744;9.110;2022-10-10T19:17:21;15.20;99.90
2997;DHT22;1508;48.744;9.110;2022-10-10T19:20:07;15.20;99.90
2997;DHT22;1508;48.744;9.110;2022-10-10T19:22:53;15.20;99.90
2997;DHT22;1508;48.744;9.110;2022-10-10T19:25:40;15.20;99.90
2997;DHT22;1508;48.744;9.110;2022-10-10T19:28:26;15.20;99.90
2997;DHT22;1508;48.744;9.110;2022-10-10T19:31:15;15.20;99.90
2997;DHT22;1508;48.744;9.110;2022-10-10T19:34:01;15.20;99.90
2997;DHT22;1508;48.744;9.110;2022-10-10T19:36:47;15.30;99.90
2997;DHT22;1508;48.744;9.110;2022-10-10T19:39:33;15.30;99.90
2997;DHT22;1508;48.744;9.110;2022-10-10T19:42:18;15.30;99.90
2997;DHT22;1508;48.744;9.110;2022-10-10T19:45:05;15.10;99.90
2997;DHT22;1508;48.744;9.110;2022-10-10T19:47:51;14.90;99.90
2997;DHT22;1508;48.744;9.110;2022-10-10T19:50:38;14.90;99.90
2997;DHT22;1508;48.744;9.110;2022-10-10T19:53:24;15.00;99.90
2997;DHT22;1508;48.744;9.110;2022-10-10T19:58:59;15.10;99.90
2997;DHT22;1508;48.744;9.110;2022-10-10T20:01:45;15.10;99.90
2997;DHT22;1508;48.744;9.110;2022-10-10T20:04:31;14.90;99.90